Time;durP1;ratioP1;P1;durP2;ratioP2;P2;SDS_P1;SDS_P2;PMS_P1;PMS_P2;Temp;Humidity;BMP_temperature;BMP_pressure;BME280_temperature;BME280_humidity;BME280_pressure;Samples;Min_cycle;Max_cycle;Signal;HPM_P1;HPM_P2
2022/07/04 00:00:45;;;;;;;27.20;9.30;;;;;;;21.99;43.33;99524.81;6273195;22;20032;-95
2022/07/04 00:06:49;;;;;;;26.58;9.85;;;;;;;22.13;44.61;99522.13;6223477;22;20015;-92
2022/07/04 00:21:06;;;;;;;15.93;8.63;;;;;;;22.03;42.15;99483.88;6204350;22;20085;-93
2022/07/04 00:23:44;;;;;;;17.35;9.45;;;;;;;22.27;41.97;99510.34;6192460;22;20350;-95
2022/07/04 00:26:21;;;;;;;18.40;8.10;;;;;;;22.28;42.24;99512.75;6144477;23;20025;-94
2022/07/04 00:33:05;;;;;;;26.35;9.48;;;;;;;22.29;41.92;99507.97;6177544;22;20012;-93
2022/07/04 00:39:03;;;;;;;19.60;8.57;;;;;;;22.28;42.14;99512.75;6235831;22;20023;-94
2022/07/04 00:44:36;;;;;;;24.92;9.60;;;;;;;21.67;42.44;99427.94;6246668;22;20476;-93
2022/07/04 00:47:13;;;;;;;28.25;10.45;;;;;;;22.27;42.82;99511.13;6203096;22;20038;-95
2022/07/04 00:49:40;;;;;;;36.78;10.65;;;;;;;21.86;42.66;99457.50;6166956;22;20011;-92
2022/07/04 00:56:19;;;;;;;25.38;9.85;;;;;;;22.07;45.01;99523.69;6254956;22;20063;-93
2022/07/04 01:07:19;;;;;;;31.10;11.40;;;;;;;21.23;45.54;99456.50;6282230;22;20035;-91
2022/07/04 01:09:48;;;;;;;26.60;10.23;;;;;;;21.59;45.72;99515.31;6182221;23;20262;-90
2022/07/04 01:13:20;;;;;;;30.83;11.07;;;;;;;21.66;45.54;99522.91;6160930;23;20032;-93
2022/07/04 01:15:51;;;;;;;24.25;10.70;;;;;;;21.47;45.56;99513.59;6225606;22;20016;-92
2022/07/04 01:21:15;;;;;;;26.90;9.98;;;;;;;20.93;46.51;99444.66;6240786;22;20469;-93
2022/07/04 01:23:41;;;;;;;32.73;11.23;;;;;;;21.21;46.94;99506.13;6173588;23;20020;-94
2022/07/04 01:26:08;;;;;;;20.17;9.93;;;;;;;21.16;47.39;99512.03;6171050;23;20362;-92
2022/07/04 01:29:00;;;;;;;21.33;9.85;;;;;;;21.28;46.25;99524.88;6171126;23;20042;-93
2022/07/04 01:31:34;;;;;;;24.67;9.55;;;;;;;20.92;47.79;99477.19;6194102;23;20020;-91
2022/07/04 01:34:00;;;;;;;28.05;10.10;;;;;;;21.15;46.51;99506.84;6222239;23;20020;-92
2022/07/04 01:36:34;;;;;;;30.80;10.52;;;;;;;21.02;46.53;99495.97;6197360;23;20050;-95
2022/07/04 01:42:43;;;;;;;34.90;10.23;;;;;;;20.97;46.18;99462.97;6192737;23;20035;-91
2022/07/04 01:48:06;;;;;;;23.65;10.32;;;;;;;21.42;46.12;99518.69;6219822;23;20028;-92
2022/07/04 02:02:12;;;;;;;23.48;10.20;;;;;;;21.03;47.15;99472.56;6275837;22;20097;-91
2022/07/04 02:04:39;;;;;;;20.95;9.85;;;;;;;21.09;46.98;99487.72;6196730;23;20021;-92
2022/07/04 02:07:55;;;;;;;22.98;10.13;;;;;;;21.56;48.16;99555.81;6174050;23;20039;-92
2022/07/04 02:17:36;;;;;;;22.98;10.20;;;;;;;21.36;46.65;99512.69;6244476;22;20016;-91
2022/07/04 02:20:28;;;;;;;31.27;11.50;;;;;;;21.24;47.08;99487.88;6225108;23;20031;-91
2022/07/04 02:22:54;;;;;;;24.10;11.63;;;;;;;21.45;46.95;99521.50;6211467;23;20028;-92
2022/07/04 02:25:55;;;;;;;24.05;11.30;;;;;;;21.28;47.68;99497.06;6218028;23;20017;-91
2022/07/04 02:29:17;;;;;;;30.73;12.23;;;;;;;21.69;47.53;99564.69;6197176;23;20162;-91
2022/07/04 02:32:47;;;;;;;27.30;11.48;;;;;;;21.74;47.81;99569.91;6219267;23;20017;-91
2022/07/04 02:35:13;;;;;;;32.60;11.70;;;;;;;21.52;48.03;99535.50;6168747;23;20016;-91
2022/07/04 02:37:40;;;;;;;21.95;11.20;;;;;;;21.51;47.56;99533.09;6199238;22;20024;-91
2022/07/04 02:41:02;;;;;;;22.75;11.88;;;;;;;21.76;48.05;99566.75;6206468;22;20027;-91
2022/07/04 02:43:53;;;;;;;23.90;11.80;;;;;;;21.75;48.05;99565.13;6204562;22;20069;-91
2022/07/04 02:46:26;;;;;;;26.92;11.73;;;;;;;21.58;48.13;99535.94;6226306;22;20047;-90
2022/07/04 02:48:56;;;;;;;23.77;11.95;;;;;;;21.53;48.52;99514.06;6226674;22;20012;-91
2022/07/04 02:51:29;;;;;;;33.20;12.45;;;;;;;21.43;47.86;99509.19;6227338;22;20462;-90
2022/07/04 02:54:01;;;;;;;25.95;11.30;;;;;;;21.42;48.30;99500.00;6225060;22;20011;-96
2022/07/04 02:56:31;;;;;;;28.88;11.68;;;;;;;21.57;48.63;99518.47;6224228;22;20106;-91
2022/07/04 02:59:22;;;;;;;39.03;11.48;;;;;;;21.94;48.41;99570.47;6199412;22;20012;-95
2022/07/04 03:01:54;;;;;;;35.75;11.63;;;;;;;21.62;48.09;99520.09;6224799;22;20019;-91
2022/07/04 03:05:28;;;;;;;30.45;11.77;;;;;;;21.92;48.11;99567.31;6199664;22;20065;-90
2022/07/04 03:08:01;;;;;;;34.55;11.82;;;;;;;21.61;48.61;99526.03;6202405;22;20023;-92
2022/07/04 03:10:55;;;;;;;26.23;11.45;;;;;;;21.86;48.62;99566.06;6204309;22;20082;-91
2022/07/04 03:13:22;;;;;;;24.75;11.85;;;;;;;21.84;48.35;99570.41;6183257;23;20455;-92
2022/07/04 03:16:47;;;;;;;28.63;11.73;;;;;;;21.76;48.92;99575.09;6162984;23;20016;-94
2022/07/04 03:19:17;;;;;;;32.15;12.52;;;;;;;21.66;49.22;99547.97;6162774;23;20023;-92
2022/07/04 03:21:43;;;;;;;27.95;12.35;;;;;;;21.62;49.21;99541.53;6138576;23;20021;-91
2022/07/04 03:24:35;;;;;;;26.90;12.32;;;;;;;21.88;49.24;99568.44;6213463;23;20044;-96
2022/07/04 03:27:02;;;;;;;44.17;14.68;;;;;;;21.81;49.91;99558.84;6185924;23;20506;-92
2022/07/04 03:30:19;;;;;;;45.72;13.20;;;;;;;22.04;49.20;99574.56;6135955;23;20016;-91
2022/07/04 03:32:48;;;;;;;35.92;13.40;;;;;;;21.98;49.34;99557.41;6130298;23;20025;-91
2022/07/04 03:35:33;;;;;;;37.65;14.35;;;;;;;21.99;49.38;99544.31;6106579;23;20027;-90
2022/07/04 03:38:00;;;;;;;31.38;12.07;;;;;;;21.67;49.10;99477.22;6156425;23;20022;-95
2022/07/04 03:40:33;;;;;;;38.17;12.45;;;;;;;21.97;49.93;99524.38;6109627;23;20022;-91
2022/07/04 03:43:08;;;;;;;46.92;14.70;;;;;;;22.14;49.76;99539.63;6157645;23;20090;-96
2022/07/04 03:45:37;;;;;;;32.83;13.10;;;;;;;22.43;49.78;99568.53;6110122;23;20018;-91
2022/07/04 03:48:03;;;;;;;28.23;12.52;;;;;;;22.47;49.82;99583.28;6110656;23;20022;-92
2022/07/04 03:50:38;;;;;;;27.88;13.07;;;;;;;22.34;50.45;99554.16;6133568;23;20022;-91
2022/07/04 03:53:29;;;;;;;28.63;12.60;;;;;;;22.66;50.71;99587.81;6135277;23;20013;-91
2022/07/04 03:56:08;;;;;;;33.47;14.52;;;;;;;22.57;50.17;99565.84;6134707;23;20045;-92
2022/07/04 04:06:42;;;;;;;32.03;13.48;;;;;;;22.96;49.97;99585.63;6126374;22;20463;-96
2022/07/04 04:09:33;;;;;;;40.50;14.43;;;;;;;23.04;50.30;99592.03;6156321;23;20051;-93
2022/07/04 04:12:50;;;;;;;34.47;13.68;;;;;;;23.16;49.38;99593.69;6206106;23;20020;-90
2022/07/04 04:15:50;;;;;;;39.45;14.05;;;;;;;22.99;49.50;99553.38;6177200;23;20070;-91
2022/07/04 04:31:21;;;;;;;35.00;14.27;;;;;;;23.52;49.26;99602.22;6276219;22;20050;-94
2022/07/04 04:33:47;;;;;;;33.72;14.32;;;;;;;23.15;48.77;99525.19;6182353;23;20028;-92
2022/07/04 04:36:16;;;;;;;36.15;14.70;;;;;;;23.53;49.92;99562.75;6222697;23;20030;-92
2022/07/04 04:43:36;;;;;;;29.23;15.38;;;;;;;23.82;47.87;99596.34;6195802;23;20477;-92
2022/07/04 04:47:08;;;;;;;39.97;15.07;;;;;;;23.92;48.12;99598.34;6215381;23;20021;-91
2022/07/04 04:50:00;;;;;;;33.35;14.68;;;;;;;24.06;48.66;99595.56;6191538;23;20275;-88
2022/07/04 04:56:25;;;;;;;;;;;;;;;24.28;48.04;99593.59;6187585;23;20363;-88
2022/07/04 04:58:51;;;;;;;38.97;16.33;;;;;;;24.29;47.94;99592.41;6188737;23;20260;-90
2022/07/04 05:01:26;;;;;;;48.85;16.40;;;;;;;24.23;48.33;99563.25;6215142;23;20027;-90
2022/07/04 05:04:01;;;;;;;41.05;15.90;;;;;;;24.31;47.28;99562.06;6153648;23;20097;-92
2022/07/04 05:06:27;;;;;;;38.05;15.98;;;;;;;24.35;46.92;99557.28;6134838;23;20020;-91
2022/07/04 05:08:53;;;;;;;32.38;16.10;;;;;;;24.50;47.00;99572.06;6108051;23;20371;-89
2022/07/04 05:11:20;;;;;;;62.17;18.10;;;;;;;24.67;47.35;99580.81;6109064;23;20014;-94
2022/07/04 05:13:46;;;;;;;;;;;;;;;24.81;46.91;99595.56;6160575;23;20044;-90
2022/07/04 05:16:12;;;;;;;34.50;16.35;;;;;;;24.82;46.57;99591.56;6189321;23;20326;-93
2022/07/04 05:18:38;;;;;;;;;;;;;;;24.87;46.50;99593.19;6165130;23;20008;-90
2022/07/04 05:21:04;;;;;;;42.58;16.75;;;;;;;24.91;46.60;99593.97;6213961;23;19998;-91
2022/07/04 05:23:31;;;;;;;50.60;18.08;;;;;;;24.76;46.95;99562.41;6164329;23;20020;-90
2022/07/04 05:25:57;;;;;;;60.70;18.25;;;;;;;24.98;47.35;99590.34;6189171;23;20016;-93
2022/07/04 05:28:23;;;;;;;121.53;23.80;;;;;;;25.02;46.49;99594.72;6165166;23;20021;-94
2022/07/04 05:30:49;;;;;;;65.00;17.85;;;;;;;24.96;46.03;99590.72;6139970;23;20039;-89
2022/07/04 05:33:24;;;;;;;91.80;19.85;;;;;;;24.99;46.42;99584.34;6216099;23;20020;-89
2022/07/04 05:35:51;;;;;;;71.40;19.13;;;;;;;25.15;46.38;99586.72;6217167;23;20087;-89
2022/07/04 05:38:23;;;;;;;35.13;16.75;;;;;;;24.97;45.89;99561.59;6218392;23;20095;-92
2022/07/04 05:41:21;;;;;;;47.40;16.15;;;;;;;24.76;46.20;99514.88;6242377;23;20096;-90
2022/07/04 05:43:48;;;;;;;101.03;29.98;;;;;;;25.38;46.47;99585.44;6181769;23;20458;-93
2022/07/04 05:46:22;;;;;;;50.40;16.83;;;;;;;25.47;45.58;99589.38;6216610;23;20021;-88
2022/07/04 05:48:55;;;;;;;85.70;25.60;;;;;;;25.50;45.14;99582.19;6216393;23;20063;-92
2022/07/04 05:51:46;;;;;;;69.28;17.20;;;;;;;25.65;45.15;99594.09;6215162;22;20025;-94
2022/07/04 05:54:12;;;;;;;75.90;18.23;;;;;;;25.67;44.38;99586.88;6215896;23;20016;-90
2022/07/04 05:56:39;;;;;;;69.90;17.08;;;;;;;25.75;44.18;99585.63;6190707;23;20016;-92
2022/07/04 05:59:05;;;;;;;131.63;22.50;;;;;;;25.77;45.32;99582.44;6218423;23;20017;-91
2022/07/04 06:01:31;;;;;;;58.58;15.32;;;;;;;25.81;44.09;99588.81;6192057;23;20391;-91
2022/07/04 06:06:49;;;;;;;84.78;17.83;;;;;;;25.72;43.40;99563.25;6214851;23;20107;-93
2022/07/04 06:09:15;;;;;;;102.05;19.52;;;;;;;25.78;43.45;99562.41;6215881;23;20020;-95
2022/07/04 06:11:42;;;;;;;124.35;22.10;;;;;;;26.09;43.86;99590.63;6215073;23;20047;-89
2022/07/04 06:14:09;;;;;;;72.93;17.20;;;;;;;26.11;43.58;99581.81;6215414;23;20027;-89
2022/07/04 06:16:37;;;;;;;106.95;19.55;;;;;;;26.18;42.75;99585.34;6167937;23;20008;-95
2022/07/04 06:19:03;;;;;;;;;;;;;;;26.22;42.97;99590.94;6167326;23;20035;-95
2022/07/04 06:21:29;;;;;;;;;;;;;;;26.22;42.45;99593.72;6216504;23;20326;-90
2022/07/04 06:23:57;;;;;;;40.97;14.13;;;;;;;26.18;42.96;99574.16;6189310;23;19916;-91
2022/07/04 06:26:24;;;;;;;53.47;16.33;;;;;;;26.33;42.41;99585.25;6187347;23;20433;-88
2022/07/04 06:28:51;;;;;;;60.55;14.95;;;;;;;26.30;42.48;99552.44;6189613;23;20077;-93
2022/07/04 06:31:17;;;;;;;;;;;;;;;26.58;40.78;99580.22;6216793;23;20020;-91
2022/07/04 06:36:47;;;;;;;84.63;19.73;;;;;;;26.80;41.80;99582.84;6098467;23;20021;-86
2022/07/04 06:39:14;;;;;;;65.15;17.70;;;;;;;26.84;41.92;99580.78;6098469;23;20100;-87
2022/07/04 06:41:40;;;;;;;75.47;29.60;;;;;;;26.92;41.38;99582.28;6098722;23;20400;-87
2022/07/04 06:44:06;;;;;;;68.13;16.92;;;;;;;26.64;41.30;99530.09;6101083;23;20104;-87
2022/07/04 06:46:32;;;;;;;43.22;16.35;;;;;;;27.07;41.23;99594.94;6124788;23;20914;-87
2022/07/04 06:49:50;;;;;;;45.33;15.02;;;;;;;26.78;40.92;99537.56;6126185;23;20036;-92
2022/07/04 06:52:42;;;;;;;51.13;14.63;;;;;;;27.24;41.53;99592.38;6155560;23;20029;-93
2022/07/04 06:59:09;;;;;;;54.83;14.77;;;;;;;26.74;38.82;99515.16;6082411;23;20472;-94
2022/07/04 07:04:13;;;;;;;51.67;14.73;;;;;;;27.30;38.77;99568.25;6210811;23;20427;-90
2022/07/04 07:06:39;;;;;;;40.83;13.60;;;;;;;27.51;39.37;99572.78;6187292;23;20016;-85
2022/07/04 07:09:05;;;;;;;47.70;18.98;;;;;;;27.37;38.96;99562.53;6185892;23;20021;-90
2022/07/04 07:15:06;;;;;;;42.85;14.10;;;;;;;27.50;38.80;99562.78;6013749;23;20092;-88
2022/07/04 07:17:44;;;;;;;26.88;13.32;;;;;;;27.75;38.89;99588.50;6036747;23;20019;-88
2022/07/04 07:21:10;;;;;;;43.25;14.50;;;;;;;27.83;39.37;99581.59;6037709;23;20019;-92
2022/07/04 07:24:00;;;;;;;34.25;13.35;;;;;;;27.93;37.96;99577.03;5907790;24;20020;-87
2022/07/04 07:26:28;;;;;;;31.33;13.27;;;;;;;27.92;38.10;99569.03;5935266;24;20017;-90
2022/07/04 07:28:56;;;;;;;33.58;13.40;;;;;;;27.93;39.39;99554.53;6041988;23;20031;-94
2022/07/04 07:31:23;;;;;;;25.95;12.55;;;;;;;27.75;37.09;99548.34;6193950;23;20024;-86
2022/07/04 07:33:50;;;;;;;47.60;14.65;;;;;;;28.03;38.98;99576.06;6216699;23;20095;-87
2022/07/04 07:36:23;;;;;;;37.05;13.98;;;;;;;28.14;38.70;99575.88;6215766;23;20012;-91
2022/07/04 07:38:53;;;;;;;47.13;14.05;;;;;;;28.00;37.30;99565.66;6217982;23;20021;-85
2022/07/04 07:41:19;;;;;;;73.07;17.88;;;;;;;28.12;37.74;99572.72;6216917;23;20476;-84
2022/07/04 07:43:51;;;;;;;46.38;13.73;;;;;;;27.93;38.03;99534.09;6217624;23;20020;-84
2022/07/04 07:46:18;;;;;;;41.58;14.50;;;;;;;28.07;36.75;99571.16;6197367;23;20043;-90
2022/07/04 07:48:59;;;;;;;27.83;13.60;;;;;;;27.90;36.50;99565.84;6227255;23;20016;-84
2022/07/04 07:51:29;;;;;;;34.67;13.82;;;;;;;27.61;38.94;99541.72;6219498;23;20034;-88
2022/07/04 07:53:55;;;;;;;86.38;20.48;;;;;;;27.82;38.29;99576.41;6219581;23;20017;-87
2022/07/04 07:56:25;;;;;;;28.45;13.60;;;;;;;27.86;36.36;99569.50;6219210;23;20027;-86
2022/07/04 07:58:53;;;;;;;29.17;13.70;;;;;;;27.98;37.24;99570.13;6167379;23;20016;-87
2022/07/04 08:01:21;;;;;;;37.42;13.32;;;;;;;27.98;36.75;99564.50;6215503;23;20047;-84
2022/07/04 08:06:33;;;;;;;39.90;14.52;;;;;;;27.87;36.61;99539.38;6217246;23;20013;-83
2022/07/04 08:09:00;;;;;;;42.13;14.13;;;;;;;28.25;38.00;99570.09;6215859;23;20020;-87
2022/07/04 08:11:26;;;;;;;60.15;15.40;;;;;;;28.36;38.45;99572.72;6218115;23;20016;-87
2022/07/04 08:13:53;;;;;;;35.17;13.82;;;;;;;28.34;37.09;99557.09;6165727;23;20087;-84
2022/07/04 08:16:19;;;;;;;;;;;;;;;28.45;39.64;99568.19;6218068;23;20020;-85
2022/07/04 08:18:46;;;;;;;42.00;13.60;;;;;;;28.51;37.99;99571.28;6166588;23;20472;-84
2022/07/04 08:21:16;;;;;;;33.90;13.98;;;;;;;28.45;37.61;99575.81;6219683;23;20027;-83
2022/07/04 08:23:51;;;;;;;47.08;13.60;;;;;;;28.26;37.63;99561.22;6169555;23;20003;-83
2022/07/04 08:26:20;;;;;;;29.60;12.85;;;;;;;28.16;37.15;99567.81;6166535;23;20148;-88
2022/07/04 08:28:47;;;;;;;22.40;13.18;;;;;;;28.15;37.86;99565.47;6228178;23;20040;-86
2022/07/04 08:31:13;;;;;;;40.80;13.70;;;;;;;27.99;37.85;99544.41;6170901;23;20347;-83
2022/07/04 08:33:39;;;;;;;35.78;13.50;;;;;;;28.40;35.14;99568.66;6252102;23;20020;-83
2022/07/04 08:36:05;;;;;;;40.38;13.32;;;;;;;28.50;36.30;99575.31;6198285;23;20023;-85
2022/07/04 08:38:32;;;;;;;27.73;13.15;;;;;;;28.52;37.55;99575.69;6173593;23;20141;-85
2022/07/04 08:41:04;;;;;;;38.47;14.82;;;;;;;28.29;35.48;99560.38;6197962;23;20038;-85
2022/07/04 08:43:35;;;;;;;48.72;14.88;;;;;;;28.14;34.34;99567.44;6228461;23;20020;-88
2022/07/04 08:46:09;;;;;;;45.42;16.45;;;;;;;28.03;34.98;99550.75;6224876;23;20016;-84
2022/07/04 08:48:50;;;;;;;36.80;14.67;;;;;;;27.68;36.09;99504.31;6223329;23;20016;-83
2022/07/04 08:51:46;;;;;;;40.35;15.27;;;;;;;27.97;34.45;99574.16;6197725;23;20278;-82
2022/07/04 08:59:55;;;;;;;37.53;14.90;;;;;;;28.33;34.30;99572.34;6201327;23;20019;-87
2022/07/04 09:02:27;;;;;;;33.50;14.10;;;;;;;28.42;34.96;99563.41;6244817;23;20083;-84
2022/07/04 09:04:53;;;;;;;24.90;13.80;;;;;;;28.44;35.95;99552.50;6244115;23;20462;-84
2022/07/04 09:07:54;;;;;;;25.83;13.68;;;;;;;28.34;34.32;99492.41;6165551;23;20032;-86
2022/07/04 09:10:24;;;;;;;58.67;18.02;;;;;;;28.79;35.10;99561.53;6186970;23;20073;-83
2022/07/04 09:13:04;;;;;;;27.90;13.68;;;;;;;28.44;34.37;99485.00;6159427;23;20021;-84
2022/07/04 09:15:55;;;;;;;27.75;13.05;;;;;;;28.54;33.32;99502.91;6189073;23;20024;-85
2022/07/04 09:18:49;;;;;;;25.63;12.55;;;;;;;29.00;33.38;99554.69;6191326;23;20451;-94
2022/07/04 09:21:42;;;;;;;51.38;14.70;;;;;;;28.89;34.15;99512.69;6187545;23;20025;-95
2022/07/04 09:25:06;;;;;;;33.33;14.45;;;;;;;29.30;34.29;99552.88;6164384;23;20016;-87
2022/07/04 09:27:49;;;;;;;46.20;15.27;;;;;;;29.14;30.90;99545.16;6190675;23;20013;-86
2022/07/04 09:30:18;;;;;;;21.67;12.98;;;;;;;29.00;31.73;99549.06;6139087;23;20025;-89
2022/07/04 09:32:58;;;;;;;27.42;14.35;;;;;;;28.93;32.51;99524.66;6187398;23;20447;-85
2022/07/04 09:35:29;;;;;;;34.88;15.43;;;;;;;29.13;32.56;99532.31;6134110;23;20025;-89
2022/07/04 09:37:59;;;;;;;43.13;16.92;;;;;;;29.28;31.59;99556.16;6182114;23;20013;-85
2022/07/04 09:43:21;;;;;;;32.55;16.92;;;;;;;29.47;32.15;99541.25;6165069;23;20021;-89
2022/07/04 09:45:55;;;;;;;;;;;;;;;29.54;33.13;99542.28;6183740;23;20057;-84
2022/07/04 09:48:21;;;;;;;32.83;16.27;;;;;;;29.60;32.61;99544.19;6156143;23;19998;-84
2022/07/04 09:50:47;;;;;;;36.00;16.00;;;;;;;29.43;32.67;99501.09;6192753;23;20031;-86
2022/07/04 09:53:14;;;;;;;;;;;;;;;29.75;30.89;99538.25;6196386;23;20027;-87
2022/07/04 09:55:41;;;;;;;30.63;13.68;;;;;;;29.39;31.61;99488.31;6173171;23;19923;-88
2022/07/04 09:58:12;;;;;;;23.58;14.57;;;;;;;29.26;30.52;99491.81;6223932;23;20024;-86
2022/07/04 10:00:41;;;;;;;23.42;16.45;;;;;;;29.31;31.29;99515.06;6218849;23;20016;-86
2022/07/04 10:03:25;;;;;;;31.35;16.27;;;;;;;29.31;32.24;99521.50;6200410;23;20012;-89
2022/07/04 10:06:08;;;;;;;30.52;14.43;;;;;;;29.33;30.74;99523.84;6194554;23;20016;-95
2022/07/04 10:08:35;;;;;;;32.75;15.75;;;;;;;29.31;31.91;99498.97;6222108;23;20021;-89
2022/07/04 10:11:03;;;;;;;27.52;15.07;;;;;;;29.34;32.11;99471.94;6216601;23;20016;-86
2022/07/04 10:13:31;;;;;;;35.85;15.50;;;;;;;29.46;32.25;99469.22;6213848;23;20450;-85
2022/07/04 10:15:58;;;;;;;31.25;14.93;;;;;;;29.67;30.85;99475.63;6187933;23;20109;-86
2022/07/04 10:18:25;;;;;;;20.48;13.65;;;;;;;29.91;31.76;99502.41;6217172;23;20017;-88
2022/07/04 10:20:54;;;;;;;29.17;15.48;;;;;;;29.96;33.20;99479.31;6192198;23;20048;-86
2022/07/04 10:23:23;;;;;;;28.58;16.05;;;;;;;30.15;31.31;99500.19;6192395;23;20016;-84
2022/07/04 10:25:51;;;;;;;21.33;15.48;;;;;;;29.96;31.55;99465.22;6164512;23;20332;-87
2022/07/04 10:28:18;;;;;;;34.05;15.45;;;;;;;30.12;31.04;99486.97;6189426;23;20040;-85
2022/07/04 10:30:51;;;;;;;63.58;17.50;;;;;;;30.04;30.97;99474.31;6247081;23;20024;-85
2022/07/04 10:33:26;;;;;;;23.50;14.25;;;;;;;30.38;31.25;99504.84;6220946;23;20016;-86
2022/07/04 10:36:02;;;;;;;24.10;14.97;;;;;;;30.23;30.09;99475.44;6246979;23;20016;-85
2022/07/04 10:38:36;;;;;;;32.63;15.37;;;;;;;30.26;32.06;99462.47;6247316;23;20251;-84
2022/07/04 10:41:05;;;;;;;35.17;16.30;;;;;;;30.37;33.18;99463.00;6219577;23;20282;-85
2022/07/04 10:43:34;;;;;;;27.67;15.02;;;;;;;30.48;29.51;99494.50;6218518;23;20095;-83
2022/07/04 10:46:12;;;;;;;28.40;14.90;;;;;;;30.51;30.14;99499.28;6244925;23;20102;-84
2022/07/04 10:49:25;;;;;;;18.42;13.63;;;;;;;30.45;29.08;99484.13;6220405;23;20436;-94
2022/07/04 10:52:09;;;;;;;27.87;14.57;;;;;;;30.43;29.42;99469.66;6246426;23;20035;-84
2022/07/04 10:54:38;;;;;;;22.65;14.10;;;;;;;30.41;28.81;99491.91;6246501;23;20381;-83
2022/07/04 10:57:21;;;;;;;18.80;13.90;;;;;;;30.46;29.32;99484.91;6219744;23;20082;-87
2022/07/04 11:00:00;;;;;;;36.38;14.02;;;;;;;30.53;29.72;99491.16;6246998;23;20457;-88
2022/07/04 11:02:27;;;;;;;18.77;13.93;;;;;;;30.49;29.24;99461.44;6219237;23;20024;-89
2022/07/04 11:05:08;;;;;;;33.40;15.45;;;;;;;30.67;29.43;99495.63;6196330;23;20023;-89
2022/07/04 11:07:40;;;;;;;24.65;14.20;;;;;;;30.76;28.79;99480.84;6221291;23;20051;-94
2022/07/04 11:10:12;;;;;;;28.98;15.07;;;;;;;30.59;30.03;99471.63;6223663;23;20030;-88
2022/07/04 11:13:02;;;;;;;27.52;14.63;;;;;;;30.48;30.71;99477.59;6221491;23;20039;-89
2022/07/04 11:15:53;;;;;;;36.70;18.25;;;;;;;30.64;31.59;99488.03;6173826;23;20454;-85
2022/07/04 11:18:22;;;;;;;23.45;13.75;;;;;;;30.21;29.56;99443.28;6163814;23;20021;-89
2022/07/04 11:20:49;;;;;;;26.48;13.90;;;;;;;30.25;30.13;99441.16;6159493;23;20028;-92
2022/07/04 11:23:19;;;;;;;32.90;14.43;;;;;;;30.21;29.57;99429.97;6158181;23;20412;-93
2022/07/04 11:25:48;;;;;;;26.40;13.75;;;;;;;30.26;30.00;99420.97;6132730;23;20388;-87
2022/07/04 11:28:34;;;;;;;33.17;14.45;;;;;;;30.81;29.45;99467.00;6131862;23;20082;-95
2022/07/04 11:31:00;;;;;;;30.40;15.43;;;;;;;30.86;29.03;99457.19;6154539;23;20057;-88
2022/07/04 11:33:37;;;;;;;44.40;15.32;;;;;;;31.01;29.20;99461.19;6131699;23;20017;-94
2022/07/04 11:36:20;;;;;;;40.45;15.07;;;;;;;31.11;27.44;99471.34;6156040;23;20318;-87
2022/07/04 11:38:55;;;;;;;23.08;14.77;;;;;;;31.00;27.65;99468.06;6130706;23;20512;-95
2022/07/04 11:47:32;;;;;;;43.65;14.38;;;;;;;31.01;29.67;99458.34;6153361;23;20096;-87
2022/07/04 11:49:59;;;;;;;40.55;15.93;;;;;;;31.35;29.02;99454.13;6152344;23;20024;-87
2022/07/04 11:52:28;;;;;;;73.85;19.13;;;;;;;31.35;30.36;99415.34;6128923;23;20026;-91
2022/07/04 11:54:58;;;;;;;83.85;18.60;;;;;;;31.49;29.33;99418.97;6129599;23;20087;-92
2022/07/04 11:57:27;;;;;;;135.48;22.20;;;;;;;31.20;28.84;99396.47;6217841;23;20071;-86
2022/07/04 11:59:59;;;;;;;39.53;14.85;;;;;;;31.43;28.31;99432.09;6189452;23;20092;-94
2022/07/04 12:02:27;;;;;;;63.97;18.65;;;;;;;31.26;29.78;99423.72;6214413;23;20024;-85
2022/07/04 12:04:53;;;;;;;56.22;16.15;;;;;;;31.35;29.10;99408.91;6163186;23;20471;-90
2022/07/04 12:07:23;;;;;;;31.65;14.60;;;;;;;31.63;28.95;99414.91;6214476;23;20028;-91
2022/07/04 12:09:49;;;;;;;35.33;15.40;;;;;;;31.63;28.82;99395.13;6213408;23;20016;-91
2022/07/04 12:12:17;;;;;;;73.28;19.08;;;;;;;31.80;28.17;99402.19;6213540;23;20044;-85
2022/07/04 12:15:06;;;;;;;100.07;18.30;;;;;;;31.96;26.44;99446.53;6187814;23;20526;-89
2022/07/04 12:17:39;;;;;;;57.53;16.17;;;;;;;31.34;27.30;99377.06;6188380;23;20016;-85
2022/07/04 12:20:13;;;;;;;24.70;13.57;;;;;;;31.63;26.18;99431.84;6215105;23;20023;-90
2022/07/04 12:22:43;;;;;;;24.80;13.85;;;;;;;31.57;27.74;99401.31;6216035;23;20027;-90
2022/07/04 12:25:28;;;;;;;44.60;15.32;;;;;;;31.35;25.94;99355.25;6191353;23;20067;-90
2022/07/04 12:28:04;;;;;;;23.83;13.32;;;;;;;31.43;25.91;99379.22;6217698;23;20094;-88
2022/07/04 12:30:37;;;;;;;41.42;14.57;;;;;;;31.52;26.88;99406.75;6246800;23;20016;-87
2022/07/04 12:33:05;;;;;;;35.72;16.10;;;;;;;31.52;26.75;99393.44;6221695;23;20016;-84
2022/07/04 12:35:40;;;;;;;47.03;14.55;;;;;;;31.33;27.08;99394.47;6220709;23;20361;-83
2022/07/04 12:38:12;;;;;;;40.23;14.40;;;;;;;31.51;26.81;99405.97;6219090;23;20081;-85
2022/07/04 12:41:08;;;;;;;70.97;15.98;;;;;;;31.67;26.50;99418.38;6219375;23;20047;-86
2022/07/04 12:43:40;;;;;;;128.27;22.63;;;;;;;31.90;27.14;99415.19;6246938;23;20024;-88
2022/07/04 12:46:25;;;;;;;77.55;17.67;;;;;;;31.71;27.85;99371.00;6219089;23;20477;-89
2022/07/04 12:48:55;;;;;;;69.90;16.55;;;;;;;31.79;25.98;99398.59;6194841;23;20012;-88
2022/07/04 12:51:23;;;;;;;51.80;15.18;;;;;;;31.89;25.80;99396.66;6170261;23;20020;-89
2022/07/04 12:53:55;;;;;;;58.75;17.08;;;;;;;31.74;26.23;99356.75;6218298;23;20103;-87
2022/07/04 12:56:32;;;;;;;34.28;13.75;;;;;;;32.09;25.60;99409.69;6218179;23;20016;-89
2022/07/04 12:59:18;;;;;;;54.88;15.52;;;;;;;32.05;26.92;99373.88;6242135;23;20086;-89
2022/07/04 13:01:47;;;;;;;66.28;17.00;;;;;;;31.99;25.27;99330.47;6132898;23;20021;-89
2022/07/04 13:04:16;;;;;;;45.15;14.32;;;;;;;31.94;26.13;99331.03;6132252;23;20614;-88
2022/07/04 13:06:46;;;;;;;45.80;14.32;;;;;;;32.00;25.10;99351.81;6181669;23;20087;-87
2022/07/04 13:09:14;;;;;;;57.92;15.65;;;;;;;31.58;26.82;99337.91;6182363;23;20127;-88
2022/07/04 13:14:26;;;;;;;58.15;15.77;;;;;;;31.18;28.69;99334.00;6181467;23;20025;-89
2022/07/04 13:16:53;;;;;;;79.95;16.65;;;;;;;31.19;26.95;99361.00;6156540;23;20424;-89
2022/07/04 13:19:19;;;;;;;50.88;15.45;;;;;;;30.71;26.37;99343.91;6181551;23;20017;-87
2022/07/04 13:21:47;;;;;;;79.38;18.38;;;;;;;30.66;27.31;99344.44;6181683;23;20021;-89
2022/07/04 13:24:13;;;;;;;56.70;15.18;;;;;;;31.22;26.98;99365.75;6181529;23;20017;-89
2022/07/04 13:26:42;;;;;;;54.25;14.95;;;;;;;31.07;26.81;99315.38;6181420;23;20071;-88
2022/07/04 13:29:08;;;;;;;46.83;15.27;;;;;;;31.31;26.01;99327.09;6180947;23;20131;-91
2022/07/04 13:31:35;;;;;;;48.38;16.10;;;;;;;31.17;25.82;99319.09;6133595;23;20028;-89
2022/07/04 13:34:02;;;;;;;;;;;;;;;31.65;25.50;99390.56;6184338;23;20021;-89
2022/07/04 13:36:29;;;;;;;62.65;15.98;;;;;;;31.31;26.01;99312.97;6159874;23;20334;-94
2022/07/04 13:39:10;;;;;;;79.85;17.95;;;;;;;31.53;25.39;99327.19;6173351;23;20048;-91
2022/07/04 13:41:39;;;;;;;43.15;13.90;;;;;;;31.56;25.96;99320.63;6114081;23;20024;-91
2022/07/04 13:44:08;;;;;;;73.13;17.23;;;;;;;31.64;26.58;99301.38;6115853;23;20017;-92
2022/07/04 13:46:37;;;;;;;82.97;19.08;;;;;;;31.77;25.72;99298.53;6214631;23;20016;-92
2022/07/04 13:49:06;;;;;;;82.47;18.60;;;;;;;31.92;26.08;99325.06;6215436;23;20012;-87
2022/07/04 13:51:32;;;;;;;43.47;15.38;;;;;;;31.95;25.53;99315.63;6213228;23;20032;-88
2022/07/04 13:53:59;;;;;;;52.63;15.20;;;;;;;31.93;26.45;99323.81;6216183;23;20021;-90
2022/07/04 13:56:26;;;;;;;;;;;;;;;32.20;26.49;99373.34;6190501;23;20071;-92
2022/07/04 13:58:52;;;;;;;71.68;16.55;;;;;;;31.80;25.61;99311.75;6187685;23;19915;-88
2022/07/04 14:01:19;;;;;;;119.05;24.20;;;;;;;31.95;26.61;99324.13;6212350;23;20055;-89
2022/07/04 14:03:48;;;;;;;148.27;23.50;;;;;;;32.09;26.88;99324.84;6188477;23;20027;-90
2022/07/04 14:06:16;;;;;;;58.33;15.13;;;;;;;32.05;25.71;99356.91;6214935;23;20095;-93